createdAt,value
2014-09-05T00:01:04.579Z,18.83
2014-09-05T00:02:09.269Z,18.8
2014-09-05T00:03:13.958Z,18.7
2014-09-05T00:04:18.648Z,18.6
2014-09-05T00:05:23.321Z,18.63
2014-09-05T00:06:28.011Z,18.65
2014-09-05T00:07:32.700Z,18.6
2014-09-05T00:08:37.374Z,18.57
2014-09-05T00:09:42.064Z,18.76
2014-09-05T00:10:47.050Z,18.97
2014-09-05T00:11:51.725Z,19.1
2014-09-05T00:12:56.710Z,18.89
2014-09-05T00:14:01.401Z,18.7
2014-09-05T00:15:06.105Z,18.59
2014-09-05T00:16:10.796Z,18.52
2014-09-05T00:17:15.468Z,18.47
2014-09-05T00:18:20.456Z,18.35
2014-09-05T00:19:25.145Z,18.74
2014-09-05T00:20:29.818Z,18.94
2014-09-05T00:21:35.102Z,19.03
2014-09-05T00:22:39.792Z,18.94
2014-09-05T00:23:44.481Z,18.73
2014-09-05T00:24:49.468Z,18.94
2014-09-05T00:25:54.142Z,18.7
2014-09-05T00:26:59.145Z,18.66
2014-09-05T00:28:03.818Z,18.68
2014-09-05T00:29:08.508Z,18.86
2014-09-05T00:30:13.222Z,18.86
2014-09-05T00:31:18.249Z,19.08
2014-09-05T00:32:22.964Z,19.08
2014-09-05T00:33:27.694Z,19.05
2014-09-05T00:34:32.425Z,18.97
2014-09-05T00:35:37.115Z,19.06
2014-09-05T00:36:42.117Z,19.12
2014-09-05T00:37:47.117Z,18.62
2014-09-05T00:38:51.822Z,18.48
2014-09-05T00:39:56.805Z,18.46
2014-09-05T00:41:01.499Z,18.4
2014-09-05T00:42:06.196Z,18.38
2014-09-05T00:43:10.874Z,18.72
2014-09-05T00:44:14.882Z,18.78
2014-09-05T00:45:19.574Z,18.59
2014-09-05T00:46:24.266Z,18.4
2014-09-05T00:47:28.940Z,18.27
2014-09-05T00:48:33.632Z,18.53
2014-09-05T00:49:38.323Z,18.67
2014-09-05T00:50:43.014Z,18.82
2014-09-05T00:51:48.000Z,18.65
2014-09-05T00:52:52.691Z,18.34
2014-09-05T00:53:57.366Z,18.37
2014-09-05T00:55:02.055Z,18.24
2014-09-05T00:56:06.730Z,18.18
2014-09-05T00:57:11.716Z,18.14
2014-09-05T00:58:16.406Z,18.19
2014-09-05T00:59:21.080Z,18.26
2014-09-05T01:00:25.769Z,18.2
2014-09-05T01:01:30.443Z,18.33
2014-09-05T01:02:35.133Z,18.42
2014-09-05T01:03:39.807Z,18.49
2014-09-05T01:04:44.497Z,18.64
2014-09-05T01:05:49.483Z,18.84
2014-09-05T01:06:54.453Z,18.89
2014-09-05T01:07:59.144Z,18.92
2014-09-05T01:09:03.818Z,18.84
2014-09-05T01:10:08.507Z,18.85
2014-09-05T01:11:13.197Z,18.81
2014-09-05T01:12:17.886Z,18.53
2014-09-05T01:13:22.560Z,18.65
2014-09-05T01:14:27.249Z,18.61
2014-09-05T01:15:32.220Z,18.74
2014-09-05T01:16:36.910Z,18.68
2014-09-05T01:17:41.897Z,18.51
2014-09-05T01:18:46.571Z,18.65
2014-09-05T01:19:51.259Z,18.76
2014-09-05T01:20:55.950Z,18.84
2014-09-05T01:22:00.639Z,18.38
2014-09-05T01:23:05.609Z,18.18
2014-09-05T01:24:10.300Z,18.1
2014-09-05T01:25:15.020Z,18.07
2014-09-05T01:26:19.694Z,18.06
2014-09-05T01:27:24.384Z,18.1
2014-09-05T01:28:29.058Z,17.96
2014-09-05T01:29:33.747Z,18.3
2014-09-05T01:30:38.422Z,18.39
2014-09-05T01:31:43.111Z,18.5
2014-09-05T01:32:47.784Z,18.53
2014-09-05T01:33:52.475Z,18.51
2014-09-05T01:34:57.164Z,18.64
2014-09-05T01:36:01.837Z,18.38
2014-09-05T01:37:06.528Z,18.05
2014-09-05T01:38:11.217Z,18.06
2014-09-05T01:39:16.188Z,18.4
2014-09-05T01:40:20.878Z,18.56
2014-09-05T01:41:25.567Z,18.62
2014-09-05T01:42:30.257Z,18.56
2014-09-05T01:43:34.930Z,18.36
2014-09-05T01:44:39.917Z,18.14
2014-09-05T01:45:44.606Z,18.08
2014-09-05T01:46:49.280Z,18.09
2014-09-05T01:47:53.970Z,17.91
2014-09-05T01:48:58.644Z,17.88
2014-09-05T01:50:03.333Z,18.18
2014-09-05T01:51:08.008Z,18.5
2014-09-05T01:52:12.697Z,18.33
2014-09-05T01:53:17.370Z,18.12
2014-09-05T01:54:22.061Z,17.9
2014-09-05T01:55:26.750Z,17.91
2014-09-05T01:56:31.423Z,17.62
2014-09-05T01:57:36.114Z,18.05
2014-09-05T01:58:40.788Z,18.12
2014-09-05T01:59:45.478Z,18.36
2014-09-05T02:00:50.151Z,18.43
2014-09-05T02:01:54.840Z,18.09
2014-09-05T02:02:59.828Z,17.94
2014-09-05T02:04:04.798Z,17.97
2014-09-05T02:05:09.488Z,18.06
2014-09-05T02:06:14.178Z,18.28
2014-09-05T02:07:18.850Z,18.46
2014-09-05T02:08:23.838Z,18.54
2014-09-05T02:09:28.527Z,18.13
2014-09-05T02:10:33.200Z,18.04
2014-09-05T02:11:37.891Z,18.04
2014-09-05T02:12:42.565Z,17.82
2014-09-05T02:13:47.254Z,17.9
2014-09-05T02:14:51.928Z,17.94
2014-09-05T02:15:56.617Z,18.06
2014-09-05T02:17:01.291Z,17.98
2014-09-05T02:18:05.982Z,18.13
2014-09-05T02:19:10.670Z,18.35
2014-09-05T02:20:15.344Z,18.26
2014-09-05T02:21:20.035Z,18.37
2014-09-05T02:22:24.723Z,18.52
2014-09-05T02:23:29.398Z,18.46
2014-09-05T02:24:34.088Z,18.3
2014-09-05T02:25:38.761Z,18.15
2014-09-05T02:26:43.451Z,18.38
2014-09-05T02:27:48.125Z,18.52
2014-09-05T02:28:52.814Z,18.46
2014-09-05T02:29:57.504Z,18.6
2014-09-05T02:31:02.178Z,18.66
2014-09-05T02:32:06.867Z,18.54
2014-09-05T02:33:11.542Z,18.58
2014-09-05T02:34:16.231Z,18.62
2014-09-05T02:35:21.233Z,18.66
2014-09-05T02:36:25.922Z,18.25
2014-09-05T02:37:30.894Z,18.25
2014-09-05T02:38:35.582Z,18.1
2014-09-05T02:39:40.256Z,17.99
2014-09-05T02:40:44.947Z,18
2014-09-05T02:41:49.621Z,18
2014-09-05T02:42:54.607Z,18.03
2014-09-05T02:43:59.281Z,17.9
2014-09-05T02:45:03.986Z,18
2014-09-05T02:46:08.660Z,18
2014-09-05T02:47:13.334Z,18.24
2014-09-05T02:48:18.023Z,18.41
2014-09-05T02:49:22.714Z,18.4
2014-09-05T02:50:27.387Z,18.49
2014-09-05T02:51:32.077Z,18.5
2014-09-05T02:52:36.767Z,18.4
2014-09-05T02:53:41.439Z,18.3
2014-09-05T02:54:46.130Z,18.05
2014-09-05T02:55:50.804Z,17.68
2014-09-05T02:56:55.493Z,17.73
2014-09-05T02:58:00.167Z,17.76
2014-09-05T02:59:04.857Z,17.75
2014-09-05T03:00:09.531Z,17.82
2014-09-05T03:01:14.221Z,17.82
2014-09-05T03:02:18.910Z,17.83
2014-09-05T03:03:23.583Z,17.92
2014-09-05T03:04:28.274Z,17.86
2014-09-05T03:05:32.259Z,17.86
2014-09-05T03:06:36.950Z,17.87
2014-09-05T03:07:41.624Z,18.15
2014-09-05T03:08:46.312Z,18.36
2014-09-05T03:09:51.003Z,18.46
2014-09-05T03:10:55.973Z,18.52
2014-09-05T03:12:00.960Z,18.6
2014-09-05T03:13:05.649Z,18.6
2014-09-05T03:14:10.620Z,18.67
2014-09-05T03:15:15.606Z,18.6
2014-09-05T03:16:20.280Z,18.5
2014-09-05T03:17:24.970Z,18.39
2014-09-05T03:18:29.644Z,18.45
2014-09-05T03:19:34.333Z,17.95
2014-09-05T03:20:39.305Z,17.86
2014-09-05T03:21:43.993Z,17.8
2014-09-05T03:22:48.964Z,17.83
2014-09-05T03:23:53.655Z,17.84
2014-09-05T03:24:58.329Z,17.83
2014-09-05T03:26:03.018Z,17.8
2014-09-05T03:27:07.692Z,17.86
2014-09-05T03:28:12.381Z,17.83
2014-09-05T03:29:17.055Z,17.88
2014-09-05T03:30:21.745Z,17.86
2014-09-05T03:31:26.731Z,17.86
2014-09-05T03:32:31.718Z,17.85
2014-09-05T03:33:36.408Z,17.86
2014-09-05T03:34:41.394Z,18.08
2014-09-05T03:35:46.364Z,18.34
2014-09-05T03:36:51.055Z,18.41
2014-09-05T03:37:55.743Z,18.42
2014-09-05T03:39:00.418Z,18.4
2014-09-05T03:40:05.108Z,18.23
2014-09-05T03:41:09.797Z,18.02
2014-09-05T03:42:14.471Z,17.86
2014-09-05T03:43:19.145Z,17.88
2014-09-05T03:44:23.834Z,17.77
2014-09-05T03:45:28.524Z,17.84
2014-09-05T03:46:33.213Z,17.86
2014-09-05T03:47:37.903Z,17.88
2014-09-05T03:48:42.577Z,17.94
2014-09-05T03:49:47.266Z,18.11
2014-09-05T03:50:51.941Z,18.31
2014-09-05T03:51:56.630Z,18.28
2014-09-05T03:53:01.320Z,18.48
2014-09-05T03:54:05.994Z,18.35
2014-09-05T03:55:10.683Z,18.4
2014-09-05T03:56:15.372Z,18.36
2014-09-05T03:57:20.047Z,18.26
2014-09-05T03:58:25.032Z,18.38
2014-09-05T03:59:29.723Z,18.22
2014-09-05T04:00:34.397Z,18.02
2014-09-05T04:01:39.087Z,17.88
2014-09-05T04:02:44.072Z,17.9
2014-09-05T04:03:48.746Z,17.97
2014-09-05T04:04:53.436Z,18.26
2014-09-05T04:05:58.110Z,18.24
2014-09-05T04:07:02.799Z,18.42
2014-09-05T04:08:07.474Z,18.53
2014-09-05T04:09:12.459Z,18.36
2014-09-05T04:10:17.150Z,18.35
2014-09-05T04:11:21.839Z,18.43
2014-09-05T04:12:26.529Z,18.44
2014-09-05T04:13:31.500Z,18.24
2014-09-05T04:14:35.502Z,17.98
2014-09-05T04:15:40.191Z,18.11
2014-09-05T04:16:44.882Z,18.24
2014-09-05T04:17:49.851Z,17.94
2014-09-05T04:18:54.838Z,17.88
2014-09-05T04:19:59.527Z,17.86
2014-09-05T04:21:04.201Z,17.91
2014-09-05T04:22:08.892Z,18.04
2014-09-05T04:23:13.580Z,18.2
2014-09-05T04:24:18.568Z,18.25
2014-09-05T04:25:23.257Z,18.34
2014-09-05T04:26:27.962Z,18.4
2014-09-05T04:27:32.652Z,18.44
2014-09-05T04:28:37.638Z,18.47
2014-09-05T04:29:42.328Z,18.16
2014-09-05T04:30:47.001Z,18.15
2014-09-05T04:31:51.691Z,18.33
2014-09-05T04:32:56.380Z,18.27
2014-09-05T04:34:01.367Z,18.06
2014-09-05T04:35:06.041Z,18.19
2014-09-05T04:36:11.028Z,18.19
2014-09-05T04:37:15.717Z,18.12
2014-09-05T04:38:20.703Z,18.23
2014-09-05T04:39:25.675Z,18.35
2014-09-05T04:40:30.363Z,18.44
2014-09-05T04:41:35.054Z,18.32
2014-09-05T04:42:40.024Z,18.38
2014-09-05T04:43:44.714Z,18.34
2014-09-05T04:44:49.403Z,18.26
2014-09-05T04:45:54.093Z,18.19
2014-09-05T04:46:59.064Z,18.28
2014-09-05T04:48:03.753Z,18.14
2014-09-05T04:49:08.444Z,17.91
2014-09-05T04:50:13.117Z,17.84
2014-09-05T04:51:17.807Z,17.91
2014-09-05T04:52:22.496Z,17.85
2014-09-05T04:53:27.483Z,17.62
2014-09-05T04:54:32.454Z,17.92
2014-09-05T04:55:37.440Z,18.08
2014-09-05T04:56:42.130Z,18.03
2014-09-05T04:57:47.116Z,18.14
2014-09-05T04:58:51.790Z,18.2
2014-09-05T04:59:56.776Z,18.15
2014-09-05T05:01:01.467Z,18.21
2014-09-05T05:02:06.140Z,17.96
2014-09-05T05:03:10.830Z,17.96
2014-09-05T05:04:15.519Z,18.1
2014-09-05T05:05:20.209Z,17.96
2014-09-05T05:06:24.898Z,18.1
2014-09-05T05:07:29.587Z,18.33
2014-09-05T05:08:34.262Z,18.32
2014-09-05T05:09:38.951Z,18.23
2014-09-05T05:10:43.641Z,18.27
2014-09-05T05:11:48.627Z,18.19
2014-09-05T05:12:53.300Z,18.13
2014-09-05T05:13:57.991Z,18.28
2014-09-05T05:15:02.977Z,18.38
2014-09-05T05:16:07.667Z,18.56
2014-09-05T05:17:12.357Z,18.43
2014-09-05T05:18:17.046Z,18.52
2014-09-05T05:19:21.735Z,18.89
2014-09-05T05:20:26.410Z,19.38
2014-09-05T05:21:31.098Z,19.78
2014-09-05T05:22:35.789Z,19.93
2014-09-05T05:23:40.477Z,20.16
2014-09-05T05:24:45.151Z,20.35
2014-09-05T05:25:49.842Z,20.36
2014-09-05T05:26:54.827Z,20.22
2014-09-05T05:27:59.815Z,20.05
2014-09-05T05:29:04.504Z,20.02
2014-09-05T05:30:09.475Z,19.87
2014-09-05T05:31:14.461Z,19.7
2014-09-05T05:32:19.151Z,19.9
2014-09-05T05:33:23.840Z,20.05
2014-09-05T05:34:28.515Z,19.97
2014-09-05T05:35:33.500Z,19.86
2014-09-05T05:36:38.191Z,19.82
2014-09-05T05:37:43.193Z,19.64
2014-09-05T05:38:47.882Z,19.61
2014-09-05T05:39:52.852Z,19.4
2014-09-05T05:40:57.543Z,19.62
2014-09-05T05:42:02.231Z,19.64
2014-09-05T05:43:07.219Z,19.84
2014-09-05T05:44:12.205Z,20.32
2014-09-05T05:45:16.894Z,21.04
2014-09-05T05:46:21.881Z,21.24
2014-09-05T05:47:26.570Z,21.81
2014-09-05T05:48:31.244Z,22.25
2014-09-05T05:49:35.934Z,22.32
2014-09-05T05:50:40.623Z,22.69
2014-09-05T05:51:45.610Z,23.26
2014-09-05T05:52:50.300Z,23.84
2014-09-05T05:53:54.990Z,24.22
2014-09-05T05:54:59.695Z,24.43
2014-09-05T05:56:04.384Z,24.78
2014-09-05T05:57:09.371Z,25.05
2014-09-05T05:58:14.060Z,25.91
2014-09-05T05:59:18.765Z,26.4
2014-09-05T06:00:23.440Z,26.98
2014-09-05T06:01:28.129Z,27.18
2014-09-05T06:02:32.819Z,26.72
2014-09-05T06:03:37.804Z,26.57
2014-09-05T06:04:42.495Z,26.88
2014-09-05T06:05:47.183Z,28.02
2014-09-05T06:06:51.874Z,29.07
2014-09-05T06:07:56.562Z,29.36
2014-09-05T06:09:01.253Z,29.75
2014-09-05T06:10:05.942Z,30.1
2014-09-05T06:11:10.648Z,29.15
2014-09-05T06:12:15.337Z,28.3
2014-09-05T06:13:20.027Z,28.5
2014-09-05T06:14:25.013Z,28.7
2014-09-05T06:15:29.702Z,29.03
2014-09-05T06:16:34.689Z,29.83
2014-09-05T06:17:39.675Z,30.26
2014-09-05T06:18:44.380Z,30.42
2014-09-05T06:19:49.071Z,30.76
2014-09-05T06:20:53.759Z,31.1
2014-09-05T06:21:58.747Z,31.1
2014-09-05T06:23:03.733Z,31.35
2014-09-05T06:24:08.735Z,31.79
2014-09-05T06:25:13.425Z,31.67
2014-09-05T06:26:18.411Z,31.84
2014-09-05T06:27:23.100Z,31.83
2014-09-05T06:28:27.790Z,31.14
2014-09-05T06:29:32.776Z,31.79
2014-09-05T06:30:37.481Z,31.49
2014-09-05T06:31:42.172Z,31.9
2014-09-05T06:32:46.860Z,32.04
2014-09-05T06:33:51.551Z,32.17
2014-09-05T06:34:56.552Z,32.15
2014-09-05T06:36:01.538Z,32.48
2014-09-05T06:37:06.229Z,32.98
2014-09-05T06:38:10.917Z,34.03
2014-09-05T06:39:15.608Z,34.43
2014-09-05T06:40:20.296Z,33.72
2014-09-05T06:41:25.002Z,33.09
2014-09-05T06:42:29.989Z,32.83
2014-09-05T06:43:34.991Z,33.79
2014-09-05T06:44:39.680Z,33.53
2014-09-05T06:45:44.370Z,32.95
2014-09-05T06:46:49.075Z,33.55
2014-09-05T06:47:53.764Z,33.54
2014-09-05T06:48:58.455Z,33.6
2014-09-05T06:50:03.176Z,33.63
2014-09-05T06:51:08.162Z,33.74
2014-09-05T06:52:12.867Z,33.39
2014-09-05T06:53:17.854Z,34.22
2014-09-05T06:54:22.543Z,34.09
2014-09-05T06:55:27.233Z,34.32
2014-09-05T06:56:31.922Z,34.41
2014-09-05T06:57:36.627Z,35.68
2014-09-05T06:58:41.317Z,35.88
2014-09-05T06:59:46.006Z,34.56
2014-09-05T07:00:50.993Z,34.68
2014-09-05T07:01:55.683Z,31.64
2014-09-05T07:03:00.404Z,29.58
2014-09-05T07:04:05.389Z,28.81
2014-09-05T07:05:10.094Z,27.44
2014-09-05T07:06:15.082Z,26.43
2014-09-05T07:07:19.770Z,25.19
2014-09-05T07:08:24.461Z,25.54
2014-09-05T07:09:29.149Z,25.35
2014-09-05T07:10:33.840Z,24.32
2014-09-05T07:11:38.544Z,24.21
2014-09-05T07:12:43.234Z,24.9
2014-09-05T07:13:47.924Z,24.89
2014-09-05T07:14:51.910Z,24.28
2014-09-05T07:15:56.600Z,24.28
2014-09-05T07:17:01.603Z,24.86
2014-09-05T07:18:06.291Z,24.45
2014-09-05T07:19:10.982Z,24.17
2014-09-05T07:20:15.670Z,24.05
2014-09-05T07:21:20.361Z,24.37
2014-09-05T07:22:25.049Z,24.56
2014-09-05T07:23:30.037Z,24.36
2014-09-05T07:24:34.726Z,24.51
2014-09-05T07:25:39.416Z,23.92
2014-09-05T07:26:44.105Z,23.58
2014-09-05T07:27:48.779Z,23.74
2014-09-05T07:28:53.765Z,23.9
2014-09-05T07:29:58.455Z,23.81
2014-09-05T07:31:03.160Z,23.33
2014-09-05T07:32:07.849Z,23.88
2014-09-05T07:33:12.523Z,24.14
2014-09-05T07:34:17.214Z,23.94
2014-09-05T07:35:21.903Z,24.15
2014-09-05T07:36:26.890Z,23.91
2014-09-05T07:37:31.859Z,23.57
2014-09-05T07:38:36.550Z,23.52
2014-09-05T07:39:41.239Z,23.87
2014-09-05T07:40:45.929Z,23.72
2014-09-05T07:41:50.618Z,23.63
2014-09-05T07:42:55.308Z,23.64
2014-09-05T07:43:59.982Z,23.99
2014-09-05T07:45:03.984Z,24.08
2014-09-05T07:46:08.673Z,23.9
2014-09-05T07:47:13.363Z,24.31
2014-09-05T07:48:18.052Z,24.28
2014-09-05T07:49:22.743Z,24.16
2014-09-05T07:50:27.431Z,24.46
2014-09-05T07:51:32.122Z,24.35
2014-09-05T07:52:37.107Z,24.18
2014-09-05T07:53:41.798Z,24.26
2014-09-05T07:54:46.487Z,23.86
2014-09-05T07:55:51.161Z,23.9
2014-09-05T07:56:56.163Z,24.25
2014-09-05T07:58:00.853Z,24.21
2014-09-05T07:59:05.542Z,24.32
2014-09-05T08:00:10.528Z,24.33
2014-09-05T08:01:15.202Z,23.83
2014-09-05T08:02:20.189Z,24.09
2014-09-05T08:03:24.878Z,24.27
2014-09-05T08:04:29.568Z,24.16
2014-09-05T08:05:34.257Z,24.1
2014-09-05T08:06:39.245Z,24.23
2014-09-05T08:07:43.933Z,24.26
2014-09-05T08:08:48.624Z,23.41
2014-09-05T08:09:53.313Z,23.7
2014-09-05T08:10:57.987Z,23.66
2014-09-05T08:12:02.676Z,23.84
2014-09-05T08:13:07.366Z,23.73
2014-09-05T08:14:12.055Z,23.7
2014-09-05T08:15:16.729Z,24.02
2014-09-05T08:16:21.419Z,23.81
2014-09-05T08:17:26.108Z,23.64
2014-09-05T08:18:30.798Z,23.8
2014-09-05T08:19:35.784Z,23.72
2014-09-05T08:20:40.771Z,23.67
2014-09-05T08:21:45.461Z,23.58
2014-09-05T08:22:50.151Z,23.72
2014-09-05T08:23:54.840Z,24.03
2014-09-05T08:24:59.826Z,23.92
2014-09-05T08:26:03.828Z,23.63
2014-09-05T08:27:08.518Z,23.87
2014-09-05T08:28:13.192Z,23.92
2014-09-05T08:29:18.178Z,24.2
2014-09-05T08:30:22.868Z,23.66
2014-09-05T08:31:27.557Z,23.68
2014-09-05T08:32:32.247Z,24.06
2014-09-05T08:33:36.936Z,24.21
2014-09-05T08:34:41.627Z,24.13
2014-09-05T08:35:46.300Z,24.26
2014-09-05T08:36:51.302Z,24.52
2014-09-05T08:37:56.319Z,24.52
2014-09-05T08:39:01.010Z,24.34
2014-09-05T08:40:05.684Z,24.45
2014-09-05T08:41:10.373Z,24.42
2014-09-05T08:42:15.063Z,24.08
2014-09-05T08:43:19.752Z,24.14
2014-09-05T08:44:24.738Z,24.65
2014-09-05T08:45:29.428Z,24.77
2014-09-05T08:46:34.414Z,24.79
2014-09-05T08:47:39.104Z,24.93
2014-09-05T08:48:43.793Z,24.95
2014-09-05T08:49:48.483Z,25.23
2014-09-05T08:50:53.158Z,25.46
2014-09-05T08:51:58.144Z,25.46
2014-09-05T08:53:02.848Z,25.43
2014-09-05T08:54:07.539Z,25.67
2014-09-05T08:55:12.525Z,25.58
2014-09-05T08:56:17.215Z,25.71
2014-09-05T08:57:21.981Z,25.43
2014-09-05T08:58:26.672Z,25.6
2014-09-05T08:59:31.361Z,25.75
2014-09-05T09:00:36.051Z,25.64
2014-09-05T09:01:40.740Z,25.66
2014-09-05T09:02:45.727Z,25.86
2014-09-05T09:03:50.417Z,25.88
2014-09-05T09:04:55.121Z,25.72
2014-09-05T09:05:59.812Z,25.51
2014-09-05T09:07:04.500Z,25.56
2014-09-05T09:08:09.191Z,25.7
2014-09-05T09:09:13.880Z,25.43
2014-09-05T09:10:18.570Z,25.1
2014-09-05T09:11:23.244Z,24.98
2014-09-05T09:12:27.933Z,25.04
2014-09-05T09:13:32.623Z,25
2014-09-05T09:14:37.312Z,24.99
2014-09-05T09:15:42.002Z,25
2014-09-05T09:16:46.691Z,25.25
2014-09-05T09:17:51.382Z,25.47
2014-09-05T09:18:56.367Z,25.72
2014-09-05T09:20:01.353Z,25.58
2014-09-05T09:21:06.044Z,25.25
2014-09-05T09:22:11.029Z,25.51
2014-09-05T09:23:15.720Z,25.6
2014-09-05T09:24:20.394Z,25.43
2014-09-05T09:25:25.083Z,25.28
2014-09-05T09:26:29.787Z,25.35
2014-09-05T09:27:34.478Z,25.52
2014-09-05T09:28:39.167Z,25.31
2014-09-05T09:29:44.154Z,25.15
2014-09-05T09:30:48.827Z,25.41
2014-09-05T09:31:53.814Z,25.62
2014-09-05T09:32:58.503Z,25.76
2014-09-05T09:34:03.194Z,25.93
2014-09-05T09:35:07.898Z,25.74
2014-09-05T09:36:12.606Z,25.62
2014-09-05T09:37:17.320Z,25.88
2014-09-05T09:38:22.050Z,26.17
2014-09-05T09:39:26.796Z,26.31
2014-09-05T09:40:31.525Z,26.34
2014-09-05T09:41:36.234Z,26.44
2014-09-05T09:42:40.938Z,26.45
2014-09-05T09:43:45.626Z,26.5
2014-09-05T09:44:50.331Z,26.63
2014-09-05T09:45:55.329Z,26.59
2014-09-05T09:47:00.025Z,26.61
2014-09-05T09:48:04.735Z,26.48
2014-09-05T09:49:09.430Z,26.39
2014-09-05T09:50:14.407Z,26.17
2014-09-05T09:51:19.100Z,26.21
2014-09-05T09:52:23.791Z,26.26
2014-09-05T09:53:28.497Z,25.95
2014-09-05T09:54:33.189Z,26.2
2014-09-05T09:55:38.177Z,26.18
2014-09-05T09:56:42.868Z,26.4
2014-09-05T09:57:47.854Z,26.03
2014-09-05T09:58:52.545Z,25.96
2014-09-05T09:59:57.235Z,26.1
2014-09-05T10:01:02.207Z,26.08
2014-09-05T10:02:06.912Z,25.82
2014-09-05T10:03:11.602Z,25.84
2014-09-05T10:04:16.276Z,26.14
2014-09-05T10:05:20.967Z,26.1
2014-09-05T10:06:25.672Z,26.08
2014-09-05T10:07:30.361Z,26.2
2014-09-05T10:08:35.051Z,26.35
2014-09-05T10:09:39.741Z,26.09
2014-09-05T10:10:44.414Z,26.27
2014-09-05T10:11:49.105Z,26.24
2014-09-05T10:12:53.810Z,26.35
2014-09-05T10:13:58.498Z,26.39
2014-09-05T10:15:03.189Z,26.17
2014-09-05T10:16:07.863Z,26.21
2014-09-05T10:17:12.552Z,26.34
2014-09-05T10:18:17.257Z,26.54
2014-09-05T10:19:21.947Z,26.43
2014-09-05T10:20:26.636Z,26.1
2014-09-05T10:21:31.326Z,26.04
2014-09-05T10:22:36.015Z,26.1
2014-09-05T10:23:40.689Z,26.13
2014-09-05T10:24:45.691Z,26.15
2014-09-05T10:25:50.366Z,25.82
2014-09-05T10:26:55.056Z,26.05
2014-09-05T10:27:59.745Z,26.28
2014-09-05T10:29:04.450Z,26.54
2014-09-05T10:30:09.124Z,26.55
2014-09-05T10:31:13.814Z,26.83
2014-09-05T10:32:18.503Z,26.77
2014-09-05T10:33:22.818Z,26.88
2014-09-05T10:34:27.507Z,26.95
2014-09-05T10:35:32.182Z,26.77
2014-09-05T10:36:36.886Z,26.69
2014-09-05T10:37:41.561Z,26.7
2014-09-05T10:38:46.249Z,26.92
2014-09-05T10:39:51.237Z,26.98
2014-09-05T10:40:55.925Z,26.87
2014-09-05T10:42:00.616Z,26.45
2014-09-05T10:43:05.305Z,26.62
2014-09-05T10:44:09.994Z,26.98
2014-09-05T10:45:14.981Z,26.98
2014-09-05T10:46:19.671Z,26.7
2014-09-05T10:47:24.345Z,26.86
2014-09-05T10:48:29.035Z,26.96
2014-09-05T10:49:33.724Z,27.07
2014-09-05T10:50:38.414Z,27.18
2014-09-05T10:51:43.103Z,27.01
2014-09-05T10:52:47.809Z,26.99
2014-09-05T10:53:52.497Z,27.13
2014-09-05T10:54:57.172Z,27.02
2014-09-05T10:56:02.157Z,27.11
2014-09-05T10:57:06.848Z,26.9
2014-09-05T10:58:11.537Z,26.86
2014-09-05T10:59:16.243Z,27.03
2014-09-05T11:00:20.932Z,27.14
2014-09-05T11:01:25.606Z,26.94
2014-09-05T11:02:30.295Z,27
2014-09-05T11:03:34.985Z,26.89
2014-09-05T11:04:39.674Z,26.9
2014-09-05T11:05:44.365Z,26.56
2014-09-05T11:06:49.070Z,26.88
2014-09-05T11:07:53.760Z,26.96
2014-09-05T11:08:58.448Z,27.03
2014-09-05T11:10:03.139Z,27.07
2014-09-05T11:11:07.811Z,27.24
2014-09-05T11:12:12.502Z,26.74
2014-09-05T11:13:17.487Z,26.51
2014-09-05T11:14:22.178Z,26.65
2014-09-05T11:15:26.867Z,26.68
2014-09-05T11:16:30.885Z,26.83
2014-09-05T11:17:35.559Z,27
2014-09-05T11:18:40.248Z,27.24
2014-09-05T11:19:44.938Z,27.29
2014-09-05T11:20:49.627Z,27.08
2014-09-05T11:21:54.317Z,26.93
2014-09-05T11:22:59.006Z,27.14
2014-09-05T11:24:03.978Z,27.17
2014-09-05T11:25:08.667Z,27.35
2014-09-05T11:26:13.373Z,27.34
2014-09-05T11:27:18.047Z,27.41
2014-09-05T11:28:22.736Z,27.43
2014-09-05T11:29:27.722Z,27.45
2014-09-05T11:30:32.412Z,27.39
2014-09-05T11:31:37.101Z,27.47
2014-09-05T11:32:41.791Z,27.66
2014-09-05T11:33:46.480Z,27.53
2014-09-05T11:34:51.170Z,27.05
2014-09-05T11:35:55.859Z,27.42
2014-09-05T11:37:00.549Z,27.02
2014-09-05T11:38:05.238Z,27.3
2014-09-05T11:39:09.929Z,27.28
2014-09-05T11:40:14.617Z,27.73
2014-09-05T11:41:19.308Z,27.7
2014-09-05T11:42:24.293Z,27.58
2014-09-05T11:43:28.983Z,27.56
2014-09-05T11:44:33.673Z,27.39
2014-09-05T11:45:38.346Z,27.03
2014-09-05T11:46:43.037Z,27.31
2014-09-05T11:47:47.726Z,27.37
2014-09-05T11:48:52.416Z,27.2
2014-09-05T11:49:57.105Z,27.42
2014-09-05T11:51:01.795Z,27.73
2014-09-05T11:52:06.484Z,27.73
2014-09-05T11:53:11.175Z,27.48
2014-09-05T11:54:15.863Z,27.58
2014-09-05T11:55:20.554Z,27.38
2014-09-05T11:56:25.242Z,27.27
2014-09-05T11:57:29.933Z,27.24
2014-09-05T11:58:34.919Z,27.37
2014-09-05T11:59:39.609Z,27.35
2014-09-05T12:00:44.314Z,26.96
2014-09-05T12:01:49.300Z,26.68
2014-09-05T12:02:53.990Z,27.08
2014-09-05T12:03:58.679Z,27.27
2014-09-05T12:05:03.384Z,27.11
2014-09-05T12:06:08.075Z,27.06
2014-09-05T12:07:12.763Z,27.25
2014-09-05T12:08:17.468Z,26.7
2014-09-05T12:09:22.189Z,26.71
2014-09-05T12:10:27.175Z,26.82
2014-09-05T12:11:31.866Z,27.24
2014-09-05T12:12:36.852Z,27.48
2014-09-05T12:13:41.541Z,27.53
2014-09-05T12:14:46.231Z,27.6
2014-09-05T12:15:50.921Z,27.57
2014-09-05T12:16:55.610Z,27.6
2014-09-05T12:18:00.300Z,27.17
2014-09-05T12:19:04.989Z,27.52
2014-09-05T12:20:09.694Z,27.74
2014-09-05T12:21:14.384Z,27.64
2014-09-05T12:22:19.073Z,27.6
2014-09-05T12:23:23.763Z,27.71
2014-09-05T12:24:28.749Z,27.76
2014-09-05T12:25:33.439Z,27.39
2014-09-05T12:26:38.129Z,27
2014-09-05T12:27:43.116Z,27.1
2014-09-05T12:28:47.805Z,27.34
2014-09-05T12:29:52.495Z,27.41
2014-09-05T12:30:57.183Z,27.18
2014-09-05T12:32:01.874Z,27.06
2014-09-05T12:33:06.563Z,27.18
2014-09-05T12:34:11.253Z,27.1
2014-09-05T12:35:16.239Z,27.39
2014-09-05T12:36:20.929Z,27.5
2014-09-05T12:37:25.916Z,27.31
2014-09-05T12:38:30.604Z,27.27
2014-09-05T12:39:35.592Z,27
2014-09-05T12:40:40.577Z,27.08
2014-09-05T12:41:45.268Z,27.38
2014-09-05T12:42:49.957Z,27.32
2014-09-05T12:43:54.647Z,27.21
2014-09-05T12:44:59.335Z,27.04
2014-09-05T12:46:04.026Z,26.83
2014-09-05T12:47:08.714Z,26.94
2014-09-05T12:48:13.405Z,27
2014-09-05T12:49:18.391Z,27.27
2014-09-05T12:50:23.081Z,26.45
2014-09-05T12:51:27.771Z,26.31
2014-09-05T12:52:32.460Z,26.6
2014-09-05T12:53:37.150Z,26.65
2014-09-05T12:54:41.839Z,26.52
2014-09-05T12:55:46.529Z,26.87
2014-09-05T12:56:51.233Z,27.06
2014-09-05T12:57:56.236Z,27.14
2014-09-05T12:59:00.910Z,26.95
2014-09-05T13:00:05.614Z,27.12
2014-09-05T13:01:10.305Z,27.22
2014-09-05T13:02:14.993Z,26.85
2014-09-05T13:03:19.684Z,27.19
2014-09-05T13:04:24.670Z,27.21
2014-09-05T13:05:29.375Z,27.19
2014-09-05T13:06:34.363Z,27.13
2014-09-05T13:07:39.052Z,26.96
2014-09-05T13:08:43.741Z,27.15
2014-09-05T13:09:48.431Z,26.95
2014-09-05T13:10:53.121Z,26.67
2014-09-05T13:11:58.107Z,26.87
2014-09-05T13:13:02.795Z,27.2
2014-09-05T13:14:07.486Z,27.32
2014-09-05T13:15:12.175Z,27.3
2014-09-05T13:16:16.865Z,27.22
2014-09-05T13:17:21.554Z,27.43
2014-09-05T13:18:26.244Z,27.63
2014-09-05T13:19:30.933Z,27.6
2014-09-05T13:20:35.920Z,27.62
2014-09-05T13:21:40.609Z,27.4
2014-09-05T13:22:45.299Z,27.39
2014-09-05T13:23:49.988Z,27.23
2014-09-05T13:24:54.679Z,27.12
2014-09-05T13:25:59.367Z,27.26
2014-09-05T13:27:04.058Z,27.17
2014-09-05T13:28:08.763Z,27.57
2014-09-05T13:29:13.451Z,27.73
2014-09-05T13:30:18.158Z,27.59
2014-09-05T13:31:22.894Z,27.59
2014-09-05T13:32:27.583Z,27.76
2014-09-05T13:33:32.273Z,27.63
2014-09-05T13:34:36.962Z,27.17
2014-09-05T13:35:41.652Z,27.4
2014-09-05T13:36:46.341Z,27.34
2014-09-05T13:37:51.032Z,27.07
2014-09-05T13:38:55.720Z,27.02
2014-09-05T13:40:00.411Z,27.02
2014-09-05T13:41:05.396Z,27.17
2014-09-05T13:42:10.087Z,27.43
2014-09-05T13:43:14.775Z,26.84
2014-09-05T13:44:19.466Z,27.32
2014-09-05T13:45:24.451Z,27.55
2014-09-05T13:46:29.142Z,27.46
2014-09-05T13:47:34.144Z,27.2
2014-09-05T13:48:38.833Z,27.33
2014-09-05T13:49:43.523Z,27.33
2014-09-05T13:50:48.212Z,27.26
2014-09-05T13:51:53.199Z,27.51
2014-09-05T13:52:58.186Z,27.65
2014-09-05T13:54:02.890Z,27.66
2014-09-05T13:55:07.581Z,27.62
2014-09-05T13:56:12.864Z,27.59
2014-09-05T13:57:17.552Z,27.54
2014-09-05T13:58:22.243Z,27.6